Airfield :
LOGIN :

Register | Disclaimer

   EN    FR    IT 

 










Legend :    VFR   Marginal VFR   IFR   Intensive IFR   Very Intensive IFR
Visi :
Ceiling :
>= 8 km
>= 3000ft
5 to 8 km
1000 to 3000 ft
1500m to 5 km
500 to 1000 ft
800 to 1500m
200 to 500 ft
< 800m
< 200 ft
Symbols :   Thunderstorms  Fog  Heavy snow  Heavy precipitations  Wind > 20 kt
SIGMETs :     Misc.  Thunderstorms  Icing  Turbulence  Mountain Waves  Volcanic Ashes







- Airport Elevation : 600 ft
- IATA code : VIE


LOWW - Vienna Schwechat

CURRENT METAR :
  • 180950Z 36005KT 330V030 CAVOK 01/M04 Q1026 NOSIG

EXPIRED METARs :
  • 180920Z 01003KT 310V040 CAVOK 00/M04 Q1027 NOSIG
  • 180850Z 35003KT 310V030 CAVOK M00/M05 Q1027 NOSIG
  • 180820Z 35004KT CAVOK M01/M05 Q1027 NOSIG
  • 180750Z 35005KT CAVOK M01/M05 Q1028 NOSIG
  • 180720Z 34004KT CAVOK M01/M05 Q1028 NOSIG

TAF TAF LOWW
Valid from the 18 at 09:00 until the 19 at 15:00 UTC


180815Z 1809/1915 01005KT 9999 FEW050 SCT090 TX06/1811Z TNM01/1905Z
BECMG 1816/1818 FEW020 BKN050
BECMG 1819/1822 5000 -SN BR FEW010 OVC020
TEMPO 1822/1909 3000 BKN010 OVC020
BECMG 1910/1912 9999 NSW BKN030
No reported NOTAMs for that airfield.



MET'MAP, your aeronautical weather chart ! - Copyright ORBIFLY December 2007 - Disclaimer

ORBIFLY MET'MAP TEAM :

Programming & Development : Alexandra Zaïnal
Concept & Development : Baudouin d'Aumeries
Co-Development & Prog : Marc-Olivier Méhu
Technical & hardware support : Manuel Goepfert

Contact : metmap@orbifly.com




SOURCES & CREDITS :

   NOAA